createdAt,value
2018-08-07T00:00:37.442Z,19.27
2018-08-07T00:03:07.224Z,21.07
2018-08-07T00:05:36.142Z,21.53
2018-08-07T00:08:06.275Z,20.10
2018-08-07T00:10:35.251Z,19.73
2018-08-07T00:13:04.203Z,21.53
2018-08-07T00:15:33.060Z,21.93
2018-08-07T00:18:02.296Z,19.60
2018-08-07T00:20:31.269Z,19.53
2018-08-07T00:23:00.167Z,21.07
2018-08-07T00:25:29.059Z,20.43
2018-08-07T00:27:57.927Z,20.27
2018-08-07T00:30:26.881Z,21.87
2018-08-07T00:32:55.838Z,19.00
2018-08-07T00:35:24.738Z,21.30
2018-08-07T00:37:53.697Z,20.17
2018-08-07T00:40:22.511Z,19.97
2018-08-07T00:42:51.421Z,20.10
2018-08-07T00:45:21.177Z,20.83
2018-08-07T00:47:50.495Z,18.87
2018-08-07T00:50:20.931Z,21.03
2018-08-07T00:52:50.730Z,20.50
2018-08-07T00:55:20.417Z,19.87
2018-08-07T00:57:49.930Z,18.60
2018-08-07T01:00:18.938Z,19.40
2018-08-07T01:02:47.820Z,22.30
2018-08-07T01:05:17.435Z,19.77
2018-08-07T01:07:46.451Z,19.53
2018-08-07T01:10:16.866Z,21.30
2018-08-07T01:12:45.918Z,20.57
2018-08-07T01:15:18.122Z,19.03
2018-08-07T01:17:47.283Z,21.40
2018-08-07T01:20:20.322Z,18.93
2018-08-07T01:22:49.243Z,20.83
2018-08-07T01:25:24.399Z,20.23
2018-08-07T01:27:53.367Z,19.67
2018-08-07T01:30:26.750Z,19.83
2018-08-07T01:32:56.119Z,21.47
2018-08-07T01:35:26.511Z,20.40
2018-08-07T01:37:55.514Z,21.50
2018-08-07T01:40:24.403Z,19.70
2018-08-07T01:42:53.307Z,20.07
2018-08-07T01:45:22.203Z,21.33
2018-08-07T01:47:51.072Z,20.07
2018-08-07T01:50:19.971Z,21.23
2018-08-07T01:52:48.714Z,19.93
2018-08-07T01:55:21.779Z,19.67
2018-08-07T01:57:50.666Z,20.93
2018-08-07T02:00:20.010Z,20.23
2018-08-07T02:02:49.378Z,21.97
2018-08-07T02:05:18.391Z,21.93
2018-08-07T02:07:47.587Z,20.63
2018-08-07T02:10:18.387Z,19.40
2018-08-07T02:12:47.331Z,20.57
2018-08-07T02:15:16.590Z,19.20
2018-08-07T02:17:45.404Z,21.50
2018-08-07T02:20:16.115Z,21.47
2018-08-07T02:22:45.612Z,20.50
2018-08-07T02:25:16.047Z,20.67
2018-08-07T02:27:45.463Z,19.80
2018-08-07T02:30:15.462Z,20.47
2018-08-07T02:32:44.366Z,21.43
2018-08-07T02:35:14.346Z,21.10
2018-08-07T02:37:44.186Z,21.40
2018-08-07T02:40:14.456Z,20.67
2018-08-07T02:42:43.479Z,20.30
2018-08-07T02:45:14.952Z,21.93
2018-08-07T02:47:44.449Z,21.13
2018-08-07T02:50:16.070Z,20.80
2018-08-07T02:52:45.110Z,21.23
2018-08-07T02:55:14.033Z,21.87
2018-08-07T02:57:43.703Z,21.37
2018-08-07T03:00:18.552Z,20.93
2018-08-07T03:02:47.736Z,21.77
2018-08-07T03:05:17.526Z,20.50
2018-08-07T03:07:46.606Z,20.40
2018-08-07T03:10:15.551Z,22.30
2018-08-07T03:12:44.407Z,20.80
2018-08-07T03:15:18.873Z,21.77
2018-08-07T03:17:48.434Z,20.20
2018-08-07T03:20:17.911Z,20.90
2018-08-07T03:22:46.916Z,20.87
2018-08-07T03:25:15.735Z,21.37
2018-08-07T03:27:45.244Z,22.00
2018-08-07T03:30:17.280Z,22.70
2018-08-07T03:32:46.831Z,20.50
2018-08-07T03:35:15.702Z,21.47
2018-08-07T03:37:44.614Z,20.93
2018-08-07T03:40:15.651Z,22.00
2018-08-07T03:42:44.774Z,20.90
2018-08-07T03:45:17.502Z,21.13
2018-08-07T03:47:46.911Z,22.90
2018-08-07T03:50:15.872Z,20.10
2018-08-07T03:52:44.756Z,21.93
2018-08-07T03:55:15.990Z,21.97
2018-08-07T03:57:45.274Z,23.30
2018-08-07T04:00:17.531Z,21.00
2018-08-07T04:02:46.515Z,21.30
2018-08-07T04:05:15.855Z,22.03
2018-08-07T04:07:44.700Z,21.93
2018-08-07T04:10:15.852Z,21.33
2018-08-07T04:12:44.821Z,20.53
2018-08-07T04:15:15.834Z,22.03
2018-08-07T04:17:44.951Z,22.27
2018-08-07T04:20:16.735Z,22.23
2018-08-07T04:22:45.717Z,23.10
2018-08-07T04:25:14.627Z,23.00
2018-08-07T04:27:43.883Z,22.30
2018-08-07T04:30:16.410Z,22.60
2018-08-07T04:32:45.578Z,23.03
2018-08-07T04:35:15.290Z,22.80
2018-08-07T04:37:44.382Z,21.70
2018-08-07T04:40:13.294Z,24.27
2018-08-07T04:42:42.357Z,22.30
2018-08-07T04:45:13.128Z,22.20
2018-08-07T04:47:42.855Z,23.17
2018-08-07T04:50:11.609Z,22.93
2018-08-07T04:52:40.707Z,24.70
2018-08-07T04:55:10.609Z,23.20
2018-08-07T04:57:39.554Z,23.03
2018-08-07T05:00:14.939Z,24.00
2018-08-07T05:02:44.655Z,22.73
2018-08-07T05:05:13.598Z,23.40
2018-08-07T05:07:42.400Z,25.47
2018-08-07T05:10:14.608Z,22.43
2018-08-07T05:12:44.222Z,21.03
2018-08-07T05:15:13.642Z,23.87
2018-08-07T05:17:44.151Z,23.43
2018-08-07T05:20:13.935Z,23.87
2018-08-07T05:22:42.835Z,24.50
2018-08-07T05:25:12.366Z,24.47
2018-08-07T05:27:41.345Z,24.83
2018-08-07T05:30:12.816Z,23.43
2018-08-07T05:32:42.116Z,24.73
2018-08-07T05:35:12.410Z,23.17
2018-08-07T05:37:41.410Z,23.40
2018-08-07T05:40:10.812Z,23.53
2018-08-07T05:42:40.515Z,23.77
2018-08-07T05:45:11.812Z,24.13
2018-08-07T05:47:40.706Z,23.93
2018-08-07T05:50:13.073Z,23.80
2018-08-07T05:52:45.878Z,21.40
2018-08-07T05:55:14.944Z,23.30
2018-08-07T05:57:43.790Z,23.30
2018-08-07T06:00:17.266Z,24.73
2018-08-07T06:02:47.208Z,25.20
2018-08-07T06:05:16.514Z,23.00
2018-08-07T06:07:45.775Z,25.00
2018-08-07T06:10:14.673Z,23.27
2018-08-07T06:12:43.646Z,24.27
2018-08-07T06:15:15.467Z,21.80
2018-08-07T06:17:45.181Z,22.63
2018-08-07T06:20:14.255Z,25.00
2018-08-07T06:22:43.338Z,23.90
2018-08-07T06:25:12.267Z,25.20
2018-08-07T06:27:41.255Z,23.70
2018-08-07T06:30:18.842Z,23.93
2018-08-07T06:32:48.544Z,25.17
2018-08-07T06:35:18.072Z,24.80
2018-08-07T06:37:47.008Z,20.90
2018-08-07T06:40:15.928Z,25.67
2018-08-07T06:42:44.860Z,24.83
2018-08-07T06:45:15.652Z,25.27
2018-08-07T06:47:44.724Z,24.00
2018-08-07T06:50:16.262Z,24.80
2018-08-07T06:52:46.045Z,23.80
2018-08-07T06:55:15.086Z,23.60
2018-08-07T06:57:44.094Z,23.33
2018-08-07T07:00:23.862Z,25.20
2018-08-07T07:02:53.785Z,23.73
2018-08-07T07:05:22.740Z,25.63
2018-08-07T07:07:51.677Z,22.43
2018-08-07T07:10:20.600Z,24.37
2018-08-07T07:12:49.505Z,25.43
2018-08-07T07:15:18.426Z,24.73
2018-08-07T07:17:47.958Z,26.10
2018-08-07T07:20:18.198Z,23.30
2018-08-07T07:22:48.275Z,23.13
2018-08-07T07:25:17.266Z,26.57
2018-08-07T07:27:46.158Z,24.63
2018-08-07T07:30:19.028Z,23.27
2018-08-07T07:32:49.364Z,24.13
2018-08-07T07:35:18.549Z,23.80
2018-08-07T07:37:47.791Z,23.90
2018-08-07T07:40:16.690Z,24.00
2018-08-07T07:42:45.542Z,22.50
2018-08-07T07:45:16.474Z,22.37
2018-08-07T07:47:45.448Z,22.67
2018-08-07T07:50:16.974Z,24.50
2018-08-07T07:52:45.861Z,23.67
2018-08-07T07:55:15.998Z,24.23
2018-08-07T07:57:44.926Z,23.90
2018-08-07T08:00:21.446Z,23.87
2018-08-07T08:02:50.787Z,23.97
2018-08-07T08:05:21.270Z,24.53
2018-08-07T08:07:50.423Z,23.63
2018-08-07T08:10:19.350Z,26.07
2018-08-07T08:12:48.284Z,24.73
2018-08-07T08:15:18.268Z,25.67
2018-08-07T08:17:47.745Z,26.37
2018-08-07T08:20:21.237Z,25.20
2018-08-07T08:22:51.048Z,22.27
2018-08-07T08:25:20.032Z,22.87
2018-08-07T08:27:49.220Z,24.40
2018-08-07T08:30:18.359Z,23.40
2018-08-07T08:32:47.363Z,22.77
2018-08-07T08:35:17.492Z,22.57
2018-08-07T08:37:46.819Z,23.90
2018-08-07T08:40:18.142Z,23.50
2018-08-07T08:42:47.188Z,27.80
2018-08-07T08:45:18.991Z,26.80
2018-08-07T08:47:51.396Z,29.23
2018-08-07T08:50:21.007Z,23.10
2018-08-07T08:52:50.042Z,24.33
2018-08-07T08:55:18.943Z,26.63
2018-08-07T08:57:47.863Z,24.10
2018-08-07T09:00:21.929Z,23.50
2018-08-07T09:02:51.102Z,23.97
2018-08-07T09:05:19.977Z,23.33
2018-08-07T09:07:48.943Z,23.67
2018-08-07T09:10:27.623Z,23.40
2018-08-07T09:12:57.570Z,24.40
2018-08-07T09:15:26.369Z,24.53
2018-08-07T09:17:55.211Z,22.90
2018-08-07T09:20:26.526Z,23.37
2018-08-07T09:22:55.960Z,23.40
2018-08-07T09:25:26.460Z,23.60
2018-08-07T09:27:55.344Z,24.10
2018-08-07T09:30:25.380Z,24.67
2018-08-07T09:32:55.039Z,23.03
2018-08-07T09:35:24.195Z,22.20
2018-08-07T09:37:53.622Z,21.83
2018-08-07T09:40:22.887Z,23.30
2018-08-07T09:42:52.965Z,21.77
2018-08-07T09:45:27.279Z,23.33
2018-08-07T09:47:56.166Z,22.00
2018-08-07T09:50:25.170Z,21.30
2018-08-07T09:52:54.011Z,22.27
2018-08-07T09:55:22.916Z,22.40
2018-08-07T09:57:51.886Z,23.17
2018-08-07T10:00:27.077Z,23.17
2018-08-07T10:02:59.706Z,22.97
2018-08-07T10:05:30.415Z,22.83
2018-08-07T10:07:59.422Z,23.77
2018-08-07T10:10:29.225Z,23.93
2018-08-07T10:12:58.180Z,23.10
2018-08-07T10:15:27.201Z,22.67
2018-08-07T10:17:56.165Z,21.57
2018-08-07T10:20:25.119Z,23.07
2018-08-07T10:22:54.124Z,23.30
2018-08-07T10:25:23.072Z,24.47
2018-08-07T10:27:52.028Z,24.20
2018-08-07T10:30:22.815Z,22.90
2018-08-07T10:32:52.690Z,23.33
2018-08-07T10:35:21.655Z,23.87
2018-08-07T10:37:50.614Z,24.93
2018-08-07T10:40:22.076Z,22.90
2018-08-07T10:42:50.956Z,22.67
2018-08-07T10:45:21.296Z,23.53
2018-08-07T10:47:50.416Z,25.40
2018-08-07T10:50:23.665Z,24.33
2018-08-07T10:52:52.794Z,23.80
2018-08-07T10:55:22.462Z,23.97
2018-08-07T10:57:53.619Z,23.47
2018-08-07T11:00:26.392Z,25.57
2018-08-07T11:02:56.027Z,24.10
2018-08-07T11:05:25.511Z,23.47
2018-08-07T11:07:54.466Z,22.07
2018-08-07T11:10:23.513Z,22.23
2018-08-07T11:12:53.102Z,22.63
2018-08-07T11:15:26.109Z,22.13
2018-08-07T11:17:56.275Z,28.33
2018-08-07T11:20:25.451Z,25.17
2018-08-07T11:22:55.998Z,24.13
2018-08-07T11:25:25.889Z,23.80
2018-08-07T11:27:54.802Z,22.20
2018-08-07T11:30:24.964Z,24.20
2018-08-07T11:32:54.904Z,23.23
2018-08-07T11:35:24.482Z,22.60
2018-08-07T11:37:55.387Z,24.53
2018-08-07T11:40:25.092Z,24.07
2018-08-07T11:42:54.648Z,22.70
2018-08-07T11:45:26.668Z,23.03
2018-08-07T11:47:55.587Z,21.63
2018-08-07T11:50:25.950Z,20.87
2018-08-07T11:52:54.863Z,21.27
2018-08-07T11:55:24.839Z,20.73
2018-08-07T11:57:54.558Z,21.50
2018-08-07T12:00:31.385Z,20.30
2018-08-07T12:03:00.409Z,21.73
2018-08-07T12:05:29.295Z,21.03
2018-08-07T12:07:58.244Z,21.27
2018-08-07T12:10:27.112Z,23.07
2018-08-07T12:12:56.051Z,23.53
2018-08-07T12:15:25.383Z,21.70
2018-08-07T12:17:54.763Z,23.27
2018-08-07T12:20:23.607Z,21.73
2018-08-07T12:22:52.570Z,23.33
2018-08-07T12:25:21.584Z,24.70
2018-08-07T12:27:50.543Z,23.70
2018-08-07T12:30:26.349Z,22.73
2018-08-07T12:32:55.508Z,24.40
2018-08-07T12:35:24.540Z,22.60
2018-08-07T12:37:53.596Z,22.95
2018-08-07T12:40:25.171Z,22.90
2018-08-07T12:43:00.164Z,23.63
2018-08-07T12:45:29.370Z,24.03
2018-08-07T12:47:58.367Z,24.03
2018-08-07T12:50:27.354Z,24.40
2018-08-07T12:52:56.342Z,24.10
2018-08-07T12:55:25.235Z,23.07
2018-08-07T12:57:54.426Z,23.87
2018-08-07T13:00:28.287Z,23.40
2018-08-07T13:02:57.211Z,23.27
2018-08-07T13:05:26.146Z,23.90
2018-08-07T13:07:55.207Z,24.13
2018-08-07T13:10:24.928Z,24.73
2018-08-07T13:12:54.851Z,24.20
2018-08-07T13:15:23.821Z,22.43
2018-08-07T13:17:52.711Z,24.47
2018-08-07T13:20:21.662Z,24.10
2018-08-07T13:22:50.622Z,23.60
2018-08-07T13:25:21.053Z,23.00
2018-08-07T13:27:49.934Z,23.17
2018-08-07T13:30:23.068Z,24.20
2018-08-07T13:32:52.026Z,21.13
2018-08-07T13:35:21.063Z,23.33
2018-08-07T13:37:50.597Z,22.93
2018-08-07T13:40:20.735Z,23.00
2018-08-07T13:42:49.712Z,22.60
2018-08-07T13:45:21.720Z,23.27
2018-08-07T13:47:50.786Z,23.23
2018-08-07T13:50:23.374Z,23.13
2018-08-07T13:52:52.883Z,22.37
2018-08-07T13:55:23.386Z,22.63
2018-08-07T13:57:52.376Z,24.37
2018-08-07T14:00:24.608Z,22.10
2018-08-07T14:02:54.480Z,20.87
2018-08-07T14:05:24.565Z,23.17
2018-08-07T14:07:55.834Z,23.50
2018-08-07T14:10:26.197Z,21.87
2018-08-07T14:12:55.103Z,22.50
2018-08-07T14:15:26.243Z,20.70
2018-08-07T14:17:55.168Z,21.40
2018-08-07T14:20:24.186Z,19.77
2018-08-07T14:22:53.095Z,22.87
2018-08-07T14:25:25.095Z,22.10
2018-08-07T14:27:54.072Z,19.93
2018-08-07T14:30:29.923Z,22.37
2018-08-07T14:33:01.517Z,22.60
2018-08-07T14:35:30.366Z,20.33
2018-08-07T14:37:59.215Z,21.00
2018-08-07T14:40:28.422Z,27.37
2018-08-07T14:42:57.398Z,23.90
2018-08-07T14:45:27.875Z,17.00
2018-08-07T14:48:00.280Z,10.60
2018-08-07T14:50:29.939Z,11.43
2018-08-07T14:52:58.946Z,12.00
2018-08-07T14:55:27.839Z,8.40
2018-08-07T14:57:56.719Z,10.33
2018-08-07T15:00:27.926Z,9.57
2018-08-07T15:02:56.888Z,9.23
2018-08-07T15:05:25.648Z,9.23
2018-08-07T15:07:54.583Z,9.83
2018-08-07T15:10:25.732Z,10.07
2018-08-07T15:12:54.666Z,9.17
2018-08-07T15:15:28.252Z,10.30
2018-08-07T15:17:57.131Z,10.93
2018-08-07T15:20:28.269Z,10.87
2018-08-07T15:22:57.523Z,12.10
2018-08-07T15:25:26.405Z,12.50
2018-08-07T15:27:55.368Z,13.47
2018-08-07T15:30:25.371Z,12.50
2018-08-07T15:32:54.578Z,12.63
2018-08-07T15:35:25.168Z,10.63
2018-08-07T15:37:54.062Z,10.07
2018-08-07T15:40:23.196Z,10.70
2018-08-07T15:42:52.096Z,11.23
2018-08-07T15:45:22.970Z,12.50
2018-08-07T15:47:52.983Z,12.10
2018-08-07T15:50:22.723Z,12.53
2018-08-07T15:52:53.390Z,14.17
2018-08-07T15:55:24.354Z,12.87
2018-08-07T15:57:54.044Z,12.87
2018-08-07T16:00:27.131Z,10.60
2018-08-07T16:02:56.134Z,10.60
2018-08-07T16:05:25.484Z,10.20
2018-08-07T16:07:54.466Z,10.83
2018-08-07T16:10:24.296Z,9.10
2018-08-07T16:12:54.555Z,9.10
2018-08-07T16:15:23.524Z,9.80
2018-08-07T16:17:53.057Z,8.57
2018-08-07T16:20:22.447Z,9.73
2018-08-07T16:22:51.404Z,9.23
2018-08-07T16:25:20.943Z,10.27
2018-08-07T16:27:50.224Z,9.23
2018-08-07T16:30:21.470Z,9.47
2018-08-07T16:32:50.352Z,9.93
2018-08-07T16:35:19.287Z,10.07
2018-08-07T16:37:48.790Z,11.07
2018-08-07T16:40:19.839Z,10.50
2018-08-07T16:42:50.067Z,10.07
2018-08-07T16:45:20.408Z,10.90
2018-08-07T16:47:49.875Z,9.80
2018-08-07T16:50:24.063Z,12.20
2018-08-07T16:52:54.524Z,10.50
2018-08-07T16:55:26.196Z,11.40
2018-08-07T16:57:55.515Z,10.97
2018-08-07T17:00:24.681Z,11.00
2018-08-07T17:02:53.760Z,11.83
2018-08-07T17:05:22.690Z,13.00
2018-08-07T17:07:51.630Z,12.30
2018-08-07T17:10:25.416Z,13.67
2018-08-07T17:12:54.344Z,14.60
2018-08-07T17:15:23.257Z,13.57
2018-08-07T17:17:52.335Z,13.37
2018-08-07T17:20:22.090Z,14.83
2018-08-07T17:22:51.631Z,13.37
2018-08-07T17:25:21.732Z,13.13
2018-08-07T17:27:51.319Z,14.53
2018-08-07T17:30:26.394Z,15.40
2018-08-07T17:32:55.378Z,13.93
2018-08-07T17:35:25.395Z,14.40
2018-08-07T17:37:56.428Z,13.13
2018-08-07T17:40:27.095Z,12.63
2018-08-07T17:42:56.388Z,14.60
2018-08-07T17:45:25.318Z,13.73
2018-08-07T17:47:54.106Z,13.67
2018-08-07T17:50:25.539Z,13.40
2018-08-07T17:52:57.433Z,12.20
2018-08-07T17:55:26.355Z,11.47
2018-08-07T17:57:56.988Z,11.57
2018-08-07T18:00:26.294Z,11.47
2018-08-07T18:02:55.326Z,10.93
2018-08-07T18:05:24.299Z,12.53
2018-08-07T18:07:55.456Z,10.57
2018-08-07T18:10:24.782Z,11.23
2018-08-07T18:12:53.858Z,12.77
2018-08-07T18:15:23.246Z,10.57
2018-08-07T18:17:52.419Z,11.90
2018-08-07T18:20:23.065Z,12.00
2018-08-07T18:22:52.182Z,11.87
2018-08-07T18:25:21.112Z,13.50
2018-08-07T18:27:50.132Z,12.37
2018-08-07T18:30:20.569Z,12.13
2018-08-07T18:32:49.624Z,12.53
2018-08-07T18:35:21.876Z,12.17
2018-08-07T18:37:50.902Z,11.83
2018-08-07T18:40:19.832Z,12.57
2018-08-07T18:42:48.902Z,14.10
2018-08-07T18:45:17.902Z,15.53
2018-08-07T18:47:46.907Z,15.83
2018-08-07T18:50:18.212Z,13.10
2018-08-07T18:52:47.142Z,12.20
2018-08-07T18:55:16.330Z,13.40
2018-08-07T18:57:46.679Z,14.60
2018-08-07T19:00:18.434Z,14.30
2018-08-07T19:02:47.358Z,13.60
2018-08-07T19:05:18.965Z,17.07
2018-08-07T19:07:54.542Z,17.07
2018-08-07T19:10:23.402Z,17.00
2018-08-07T19:12:52.398Z,15.73
2018-08-07T19:15:21.323Z,16.53
2018-08-07T19:17:50.246Z,16.20
2018-08-07T19:20:20.711Z,15.33
2018-08-07T19:22:49.763Z,15.50
2018-08-07T19:25:19.423Z,15.43
2018-08-07T19:27:50.693Z,16.90
2018-08-07T19:30:22.331Z,15.83
2018-08-07T19:32:51.915Z,16.40
2018-08-07T19:35:20.951Z,16.40
2018-08-07T19:37:50.135Z,15.53
2018-08-07T19:40:19.827Z,15.30
2018-08-07T19:42:49.533Z,15.83
2018-08-07T19:45:18.720Z,17.47
2018-08-07T19:47:47.763Z,16.27
2018-08-07T19:50:18.975Z,15.70
2018-08-07T19:52:48.013Z,16.43
2018-08-07T19:55:20.033Z,16.60
2018-08-07T19:57:50.190Z,16.20
2018-08-07T20:00:23.338Z,16.10
2018-08-07T20:02:52.386Z,15.03
2018-08-07T20:05:21.750Z,14.60
2018-08-07T20:07:51.428Z,15.60
2018-08-07T20:10:20.743Z,14.57
2018-08-07T20:12:49.718Z,13.60
2018-08-07T20:15:23.524Z,16.50
2018-08-07T20:17:54.391Z,16.80
2018-08-07T20:20:23.872Z,16.30
2018-08-07T20:22:54.221Z,15.70
2018-08-07T20:25:23.867Z,15.00
2018-08-07T20:27:52.844Z,14.50
2018-08-07T20:30:23.334Z,15.07
2018-08-07T20:32:53.947Z,15.43
2018-08-07T20:35:23.588Z,16.37
2018-08-07T20:37:53.201Z,15.07
2018-08-07T20:40:25.159Z,15.20
2018-08-07T20:42:56.016Z,15.47
2018-08-07T20:45:24.917Z,15.40
2018-08-07T20:47:56.607Z,15.10
2018-08-07T20:50:26.639Z,16.57
2018-08-07T20:52:56.039Z,15.83
2018-08-07T20:55:25.903Z,15.10
2018-08-07T20:57:54.698Z,14.90
2018-08-07T21:00:24.899Z,15.63
2018-08-07T21:02:53.844Z,15.00
2018-08-07T21:05:23.872Z,16.30
2018-08-07T21:07:52.975Z,16.07
2018-08-07T21:10:25.043Z,16.50
2018-08-07T21:12:54.427Z,15.40
2018-08-07T21:15:23.411Z,15.60
2018-08-07T21:17:52.323Z,15.47
2018-08-07T21:20:22.070Z,13.77
2018-08-07T21:22:51.173Z,12.40
2018-08-07T21:25:21.641Z,12.53
2018-08-07T21:27:52.369Z,11.47
2018-08-07T21:30:23.037Z,10.93
2018-08-07T21:32:51.910Z,11.73
2018-08-07T21:35:20.886Z,10.53
2018-08-07T21:37:49.864Z,11.83
2018-08-07T21:40:19.804Z,11.13
2018-08-07T21:42:49.820Z,11.80
2018-08-07T21:45:18.990Z,11.50
2018-08-07T21:47:47.818Z,11.97
2018-08-07T21:50:19.100Z,12.10
2018-08-07T21:52:48.051Z,11.33
2018-08-07T21:55:17.953Z,10.83
2018-08-07T21:57:46.995Z,10.97
2018-08-07T22:00:24.549Z,11.43
2018-08-07T22:02:53.422Z,11.90
2018-08-07T22:05:22.285Z,11.50
2018-08-07T22:07:51.142Z,11.00
2018-08-07T22:10:21.243Z,10.23
2018-08-07T22:12:50.155Z,10.83
2018-08-07T22:15:19.736Z,11.17
2018-08-07T22:17:48.672Z,10.50
2018-08-07T22:20:17.560Z,11.10
2018-08-07T22:22:46.461Z,11.33
2018-08-07T22:25:15.321Z,10.33
2018-08-07T22:27:44.190Z,10.80
2018-08-07T22:30:18.827Z,11.27
2018-08-07T22:32:48.211Z,11.23
2018-08-07T22:35:17.422Z,10.83
2018-08-07T22:37:46.451Z,10.13
2018-08-07T22:40:16.684Z,11.50
2018-08-07T22:42:45.667Z,10.80
2018-08-07T22:45:15.956Z,9.43
2018-08-07T22:47:44.824Z,10.47
2018-08-07T22:50:14.952Z,8.53
2018-08-07T22:52:44.577Z,9.67
2018-08-07T22:55:15.238Z,11.17
2018-08-07T22:57:44.085Z,10.73
2018-08-07T23:00:21.251Z,10.47
2018-08-07T23:02:49.950Z,10.90
2018-08-07T23:05:19.282Z,11.00
2018-08-07T23:07:48.119Z,10.23
2018-08-07T23:10:18.586Z,9.77
2018-08-07T23:12:47.500Z,11.63
2018-08-07T23:15:18.498Z,10.60
2018-08-07T23:17:47.598Z,10.60
2018-08-07T23:20:17.911Z,10.20
2018-08-07T23:22:46.815Z,11.30
2018-08-07T23:25:15.694Z,10.70
2018-08-07T23:27:44.558Z,11.10
2018-08-07T23:30:16.502Z,9.97
2018-08-07T23:32:45.518Z,11.33
2018-08-07T23:35:14.960Z,10.40
2018-08-07T23:37:43.934Z,10.47
2018-08-07T23:40:13.980Z,9.90
2018-08-07T23:42:43.356Z,10.13
2018-08-07T23:45:13.502Z,10.17
2018-08-07T23:47:42.528Z,10.30
2018-08-07T23:50:12.387Z,10.17
2018-08-07T23:52:41.459Z,11.50
2018-08-07T23:55:10.434Z,10.23
2018-08-07T23:57:39.228Z,9.47
